sensor_id;sensor_type;location;lat;lon;timestamp;pressure;altitude;pressure_sealevel;temperature;humidity
59170;BME280;52474;52.236;5.114;2023-05-23T00:00:42;101976.13;;;13.37;100.00
59170;BME280;52474;52.236;5.114;2023-05-23T00:03:09;101985.31;;;13.33;100.00
59170;BME280;52474;52.236;5.114;2023-05-23T00:05:35;101971.00;;;13.23;100.00
59170;BME280;52474;52.236;5.114;2023-05-23T00:08:01;101992.69;;;13.29;100.00
59170;BME280;52474;52.236;5.114;2023-05-23T00:10:27;101984.31;;;13.23;100.00
59170;BME280;52474;52.236;5.114;2023-05-23T00:12:52;101976.81;;;13.05;100.00
59170;BME280;52474;52.236;5.114;2023-05-23T00:15:18;102003.03;;;13.10;100.00
59170;BME280;52474;52.236;5.114;2023-05-23T00:17:44;102007.75;;;13.18;100.00
59170;BME280;52474;52.236;5.114;2023-05-23T00:20:11;101993.00;;;13.14;100.00
59170;BME280;52474;52.236;5.114;2023-05-23T00:22:38;101994.94;;;13.11;100.00
59170;BME280;52474;52.236;5.114;2023-05-23T00:25:10;102011.47;;;13.04;100.00
59170;BME280;52474;52.236;5.114;2023-05-23T00:27:36;101989.94;;;12.84;100.00
59170;BME280;52474;52.236;5.114;2023-05-23T00:30:02;101997.81;;;12.86;100.00
59170;BME280;52474;52.236;5.114;2023-05-23T00:32:30;101998.53;;;12.88;100.00
59170;BME280;52474;52.236;5.114;2023-05-23T00:34:55;102005.91;;;12.96;100.00
59170;BME280;52474;52.236;5.114;2023-05-23T00:37:21;101969.25;;;12.77;100.00
59170;BME280;52474;52.236;5.114;2023-05-23T00:39:47;102007.25;;;12.90;100.00
59170;BME280;52474;52.236;5.114;2023-05-23T00:42:13;102011.47;;;12.93;100.00
59170;BME280;52474;52.236;5.114;2023-05-23T00:44:39;101989.31;;;12.81;100.00
59170;BME280;52474;52.236;5.114;2023-05-23T00:47:06;102015.09;;;12.92;100.00
59170;BME280;52474;52.236;5.114;2023-05-23T00:49:32;102014.59;;;12.86;100.00
59170;BME280;52474;52.236;5.114;2023-05-23T00:51:59;102011.34;;;12.94;100.00
59170;BME280;52474;52.236;5.114;2023-05-23T00:54:27;102018.97;;;12.99;100.00
59170;BME280;52474;52.236;5.114;2023-05-23T00:56:54;102013.66;;;12.99;100.00
59170;BME280;52474;52.236;5.114;2023-05-23T00:59:22;101995.09;;;12.75;100.00
59170;BME280;52474;52.236;5.114;2023-05-23T01:01:50;102013.16;;;12.82;100.00
59170;BME280;52474;52.236;5.114;2023-05-23T01:04:17;102014.72;;;12.85;100.00
59170;BME280;52474;52.236;5.114;2023-05-23T01:06:45;102010.34;;;12.84;100.00
59170;BME280;52474;52.236;5.114;2023-05-23T01:09:16;102012.91;;;12.85;100.00
59170;BME280;52474;52.236;5.114;2023-05-23T01:11:51;102018.81;;;12.89;100.00
59170;BME280;52474;52.236;5.114;2023-05-23T01:14:25;102017.38;;;12.85;100.00
59170;BME280;52474;52.236;5.114;2023-05-23T01:17:02;102013.25;;;12.81;100.00
59170;BME280;52474;52.236;5.114;2023-05-23T01:22:48;102015.44;;;12.87;100.00
59170;BME280;52474;52.236;5.114;2023-05-23T01:27:56;102023.78;;;12.94;100.00
59170;BME280;52474;52.236;5.114;2023-05-23T01:30:27;102013.66;;;12.87;100.00
59170;BME280;52474;52.236;5.114;2023-05-23T01:32:55;102024.13;;;12.89;100.00
59170;BME280;52474;52.236;5.114;2023-05-23T01:35:24;102003.06;;;12.75;100.00
59170;BME280;52474;52.236;5.114;2023-05-23T01:37:54;102020.53;;;12.90;100.00
59170;BME280;52474;52.236;5.114;2023-05-23T01:40:21;102031.91;;;12.92;100.00
59170;BME280;52474;52.236;5.114;2023-05-23T01:42:50;102024.63;;;12.94;100.00
59170;BME280;52474;52.236;5.114;2023-05-23T01:45:17;102035.03;;;12.86;100.00
59170;BME280;52474;52.236;5.114;2023-05-23T01:47:43;102022.25;;;12.67;100.00
59170;BME280;52474;52.236;5.114;2023-05-23T01:50:11;102020.25;;;12.82;100.00
59170;BME280;52474;52.236;5.114;2023-05-23T01:52:36;102016.38;;;12.75;100.00
59170;BME280;52474;52.236;5.114;2023-05-23T01:55:05;102025.91;;;12.77;100.00
59170;BME280;52474;52.236;5.114;2023-05-23T01:57:35;102011.03;;;12.63;100.00
59170;BME280;52474;52.236;5.114;2023-05-23T02:00:05;102027.72;;;12.77;100.00
59170;BME280;52474;52.236;5.114;2023-05-23T02:02:39;102017.94;;;12.77;100.00
59170;BME280;52474;52.236;5.114;2023-05-23T02:05:05;102029.44;;;12.78;100.00
59170;BME280;52474;52.236;5.114;2023-05-23T02:07:31;102001.75;;;12.69;100.00
59170;BME280;52474;52.236;5.114;2023-05-23T02:09:57;102009.75;;;12.80;100.00
59170;BME280;52474;52.236;5.114;2023-05-23T02:12:23;102019.91;;;12.86;100.00
59170;BME280;52474;52.236;5.114;2023-05-23T02:14:49;102018.91;;;12.76;100.00
59170;BME280;52474;52.236;5.114;2023-05-23T02:17:17;102033.34;;;12.85;100.00
59170;BME280;52474;52.236;5.114;2023-05-23T02:19:43;102030.78;;;12.83;100.00
59170;BME280;52474;52.236;5.114;2023-05-23T02:22:08;102041.41;;;12.83;100.00
59170;BME280;52474;52.236;5.114;2023-05-23T02:24:34;102033.94;;;12.88;100.00
59170;BME280;52474;52.236;5.114;2023-05-23T02:27:00;102037.56;;;12.87;100.00
59170;BME280;52474;52.236;5.114;2023-05-23T02:29:26;102033.19;;;12.86;100.00
59170;BME280;52474;52.236;5.114;2023-05-23T02:31:51;102014.19;;;12.68;100.00
59170;BME280;52474;52.236;5.114;2023-05-23T02:34:17;102054.97;;;12.92;100.00
59170;BME280;52474;52.236;5.114;2023-05-23T02:36:43;102057.13;;;12.86;100.00
59170;BME280;52474;52.236;5.114;2023-05-23T02:39:09;102056.38;;;12.73;100.00
59170;BME280;52474;52.236;5.114;2023-05-23T02:41:35;102062.44;;;12.75;100.00
59170;BME280;52474;52.236;5.114;2023-05-23T02:44:02;102061.34;;;12.78;100.00
59170;BME280;52474;52.236;5.114;2023-05-23T02:46:28;102077.91;;;12.81;100.00
59170;BME280;52474;52.236;5.114;2023-05-23T02:48:54;102072.31;;;12.73;100.00
59170;BME280;52474;52.236;5.114;2023-05-23T02:51:19;102070.09;;;12.67;100.00
59170;BME280;52474;52.236;5.114;2023-05-23T02:53:45;102049.03;;;12.53;100.00
59170;BME280;52474;52.236;5.114;2023-05-23T02:56:11;102063.44;;;12.61;100.00
59170;BME280;52474;52.236;5.114;2023-05-23T02:58:38;102074.06;;;12.61;100.00
59170;BME280;52474;52.236;5.114;2023-05-23T03:01:05;102075.91;;;12.61;100.00
59170;BME280;52474;52.236;5.114;2023-05-23T03:03:32;102066.78;;;12.52;100.00
59170;BME280;52474;52.236;5.114;2023-05-23T03:05:59;102073.47;;;12.58;100.00
59170;BME280;52474;52.236;5.114;2023-05-23T03:08:25;102076.34;;;12.55;100.00
59170;BME280;52474;52.236;5.114;2023-05-23T03:10:51;102077.53;;;12.51;100.00
59170;BME280;52474;52.236;5.114;2023-05-23T03:13:17;102076.47;;;12.53;100.00
59170;BME280;52474;52.236;5.114;2023-05-23T03:15:44;102068.59;;;12.52;100.00
59170;BME280;52474;52.236;5.114;2023-05-23T03:18:10;102076.00;;;12.59;100.00
59170;BME280;52474;52.236;5.114;2023-05-23T03:20:37;102070.81;;;12.58;100.00
59170;BME280;52474;52.236;5.114;2023-05-23T03:23:02;102072.09;;;12.52;100.00
59170;BME280;52474;52.236;5.114;2023-05-23T03:25:28;102072.44;;;12.48;100.00
59170;BME280;52474;52.236;5.114;2023-05-23T03:27:54;102060.69;;;12.39;100.00
59170;BME280;52474;52.236;5.114;2023-05-23T03:30:20;102076.53;;;12.40;100.00
59170;BME280;52474;52.236;5.114;2023-05-23T03:32:46;102033.16;;;12.16;100.00
59170;BME280;52474;52.236;5.114;2023-05-23T03:35:12;102071.56;;;12.36;100.00
59170;BME280;52474;52.236;5.114;2023-05-23T03:37:38;102082.78;;;12.39;100.00
59170;BME280;52474;52.236;5.114;2023-05-23T03:40:05;102085.44;;;12.39;100.00
59170;BME280;52474;52.236;5.114;2023-05-23T03:42:31;102088.34;;;12.36;100.00
59170;BME280;52474;52.236;5.114;2023-05-23T03:44:57;102090.00;;;12.37;100.00
59170;BME280;52474;52.236;5.114;2023-05-23T03:47:26;102096.63;;;12.32;100.00
59170;BME280;52474;52.236;5.114;2023-05-23T03:49:54;102094.94;;;12.31;100.00
59170;BME280;52474;52.236;5.114;2023-05-23T03:52:19;102088.59;;;12.20;100.00
59170;BME280;52474;52.236;5.114;2023-05-23T03:54:45;102095.59;;;12.21;100.00
59170;BME280;52474;52.236;5.114;2023-05-23T03:57:11;102100.28;;;12.18;100.00
59170;BME280;52474;52.236;5.114;2023-05-23T03:59:37;102105.72;;;12.16;100.00
59170;BME280;52474;52.236;5.114;2023-05-23T04:02:07;102102.72;;;12.21;100.00
59170;BME280;52474;52.236;5.114;2023-05-23T04:04:34;102103.69;;;12.20;100.00
59170;BME280;52474;52.236;5.114;2023-05-23T04:07:00;102113.78;;;12.15;100.00
59170;BME280;52474;52.236;5.114;2023-05-23T04:09:27;102116.44;;;12.15;100.00
59170;BME280;52474;52.236;5.114;2023-05-23T04:11:53;102122.91;;;12.11;100.00
59170;BME280;52474;52.236;5.114;2023-05-23T04:14:19;102106.81;;;11.88;100.00
59170;BME280;52474;52.236;5.114;2023-05-23T04:16:48;102124.75;;;11.97;100.00
59170;BME280;52474;52.236;5.114;2023-05-23T04:19:16;102122.19;;;11.96;100.00
59170;BME280;52474;52.236;5.114;2023-05-23T04:21:42;102108.69;;;11.86;100.00
59170;BME280;52474;52.236;5.114;2023-05-23T04:24:10;102119.03;;;11.91;100.00
59170;BME280;52474;52.236;5.114;2023-05-23T04:26:36;102135.47;;;11.96;100.00
59170;BME280;52474;52.236;5.114;2023-05-23T04:29:03;102134.75;;;11.94;100.00
59170;BME280;52474;52.236;5.114;2023-05-23T04:31:31;102150.25;;;11.87;100.00
59170;BME280;52474;52.236;5.114;2023-05-23T04:33:58;102126.22;;;11.76;100.00
59170;BME280;52474;52.236;5.114;2023-05-23T04:36:24;102142.38;;;11.86;100.00
59170;BME280;52474;52.236;5.114;2023-05-23T04:38:56;102142.06;;;11.77;100.00
59170;BME280;52474;52.236;5.114;2023-05-23T04:41:23;102146.72;;;11.74;100.00
59170;BME280;52474;52.236;5.114;2023-05-23T04:43:57;102151.19;;;11.73;100.00
59170;BME280;52474;52.236;5.114;2023-05-23T04:46:34;102151.94;;;11.75;100.00
59170;BME280;52474;52.236;5.114;2023-05-23T04:49:08;102154.38;;;11.78;100.00
59170;BME280;52474;52.236;5.114;2023-05-23T04:51:34;102150.88;;;11.78;100.00
59170;BME280;52474;52.236;5.114;2023-05-23T04:54:10;102148.66;;;11.72;100.00
59170;BME280;52474;52.236;5.114;2023-05-23T04:56:36;102167.84;;;11.75;100.00
59170;BME280;52474;52.236;5.114;2023-05-23T04:59:02;102141.63;;;11.58;100.00
59170;BME280;52474;52.236;5.114;2023-05-23T05:01:29;102156.28;;;11.64;100.00
59170;BME280;52474;52.236;5.114;2023-05-23T05:03:55;102172.41;;;11.73;100.00
59170;BME280;52474;52.236;5.114;2023-05-23T05:06:22;102169.59;;;11.89;100.00
59170;BME280;52474;52.236;5.114;2023-05-23T05:08:50;102180.63;;;11.96;100.00
59170;BME280;52474;52.236;5.114;2023-05-23T05:11:16;102175.66;;;11.91;100.00
59170;BME280;52474;52.236;5.114;2023-05-23T05:13:42;102167.22;;;11.85;100.00
59170;BME280;52474;52.236;5.114;2023-05-23T05:16:08;102175.50;;;12.06;100.00
59170;BME280;52474;52.236;5.114;2023-05-23T05:18:34;102190.06;;;12.00;100.00
59170;BME280;52474;52.236;5.114;2023-05-23T05:21:01;102171.59;;;11.98;100.00
59170;BME280;52474;52.236;5.114;2023-05-23T05:23:30;102178.59;;;12.12;100.00
59170;BME280;52474;52.236;5.114;2023-05-23T05:25:57;102191.22;;;11.96;100.00
59170;BME280;52474;52.236;5.114;2023-05-23T05:28:23;102196.66;;;12.07;100.00
59170;BME280;52474;52.236;5.114;2023-05-23T05:30:51;102191.13;;;12.10;100.00
59170;BME280;52474;52.236;5.114;2023-05-23T05:33:21;102199.84;;;12.12;100.00
59170;BME280;52474;52.236;5.114;2023-05-23T05:35:59;102207.50;;;12.04;100.00
59170;BME280;52474;52.236;5.114;2023-05-23T05:38:26;102223.50;;;12.15;100.00
59170;BME280;52474;52.236;5.114;2023-05-23T05:40:51;102223.97;;;12.09;100.00
59170;BME280;52474;52.236;5.114;2023-05-23T05:43:18;102230.22;;;12.08;100.00
59170;BME280;52474;52.236;5.114;2023-05-23T05:45:44;102234.25;;;12.01;100.00
59170;BME280;52474;52.236;5.114;2023-05-23T05:48:10;102242.88;;;11.92;100.00
59170;BME280;52474;52.236;5.114;2023-05-23T05:50:36;102239.75;;;11.85;100.00
59170;BME280;52474;52.236;5.114;2023-05-23T05:53:02;102243.97;;;11.75;100.00
59170;BME280;52474;52.236;5.114;2023-05-23T05:55:28;102247.31;;;11.91;100.00
59170;BME280;52474;52.236;5.114;2023-05-23T05:57:54;102245.06;;;12.11;100.00
59170;BME280;52474;52.236;5.114;2023-05-23T06:00:30;102235.63;;;12.07;100.00
59170;BME280;52474;52.236;5.114;2023-05-23T06:02:56;102239.56;;;12.14;100.00
59170;BME280;52474;52.236;5.114;2023-05-23T06:05:51;102223.53;;;12.02;100.00
59170;BME280;52474;52.236;5.114;2023-05-23T06:08:17;102241.50;;;11.99;100.00
59170;BME280;52474;52.236;5.114;2023-05-23T06:10:43;102235.00;;;12.03;100.00
59170;BME280;52474;52.236;5.114;2023-05-23T06:13:09;102238.19;;;11.95;100.00
59170;BME280;52474;52.236;5.114;2023-05-23T06:15:36;102220.19;;;11.86;100.00
59170;BME280;52474;52.236;5.114;2023-05-23T06:18:02;102256.97;;;12.05;100.00
59170;BME280;52474;52.236;5.114;2023-05-23T06:20:30;102254.44;;;12.03;100.00
59170;BME280;52474;52.236;5.114;2023-05-23T06:22:58;102267.19;;;12.11;100.00
59170;BME280;52474;52.236;5.114;2023-05-23T06:25:25;102262.28;;;12.05;100.00
59170;BME280;52474;52.236;5.114;2023-05-23T06:27:50;102246.91;;;11.97;100.00
59170;BME280;52474;52.236;5.114;2023-05-23T06:30:17;102241.91;;;11.93;100.00
59170;BME280;52474;52.236;5.114;2023-05-23T06:32:44;102261.53;;;11.90;100.00
59170;BME280;52474;52.236;5.114;2023-05-23T06:35:10;102261.28;;;11.80;100.00
59170;BME280;52474;52.236;5.114;2023-05-23T06:37:36;102268.63;;;11.77;100.00
59170;BME280;52474;52.236;5.114;2023-05-23T06:40:02;102262.03;;;11.70;100.00
59170;BME280;52474;52.236;5.114;2023-05-23T06:42:28;102244.91;;;11.61;100.00
59170;BME280;52474;52.236;5.114;2023-05-23T06:45:03;102248.72;;;11.57;100.00
59170;BME280;52474;52.236;5.114;2023-05-23T06:47:34;102249.69;;;11.69;100.00
59170;BME280;52474;52.236;5.114;2023-05-23T06:50:01;102254.50;;;11.76;100.00
59170;BME280;52474;52.236;5.114;2023-05-23T06:52:27;102268.66;;;11.90;100.00
59170;BME280;52474;52.236;5.114;2023-05-23T06:54:53;102250.16;;;11.88;100.00
59170;BME280;52474;52.236;5.114;2023-05-23T06:57:19;102260.91;;;12.12;100.00
59170;BME280;52474;52.236;5.114;2023-05-23T06:59:45;102264.53;;;12.24;100.00
59170;BME280;52474;52.236;5.114;2023-05-23T07:02:11;102268.38;;;13.06;100.00
59170;BME280;52474;52.236;5.114;2023-05-23T07:04:37;102279.31;;;13.39;100.00
59170;BME280;52474;52.236;5.114;2023-05-23T07:07:08;102267.13;;;13.23;100.00
59170;BME280;52474;52.236;5.114;2023-05-23T07:09:34;102276.75;;;13.13;100.00
59170;BME280;52474;52.236;5.114;2023-05-23T07:12:13;102252.81;;;12.89;100.00
59170;BME280;52474;52.236;5.114;2023-05-23T07:14:42;102282.31;;;13.10;100.00
59170;BME280;52474;52.236;5.114;2023-05-23T07:17:08;102285.16;;;13.20;100.00
59170;BME280;52474;52.236;5.114;2023-05-23T07:19:34;102281.09;;;13.14;100.00
59170;BME280;52474;52.236;5.114;2023-05-23T07:22:00;102266.78;;;12.67;100.00
59170;BME280;52474;52.236;5.114;2023-05-23T07:24:26;102281.56;;;12.71;100.00
59170;BME280;52474;52.236;5.114;2023-05-23T07:26:54;102283.22;;;12.48;100.00
59170;BME280;52474;52.236;5.114;2023-05-23T07:29:21;102293.69;;;12.75;100.00
59170;BME280;52474;52.236;5.114;2023-05-23T07:31:49;102296.88;;;13.41;100.00
59170;BME280;52474;52.236;5.114;2023-05-23T07:34:16;102295.94;;;16.09;100.00
59170;BME280;52474;52.236;5.114;2023-05-23T07:36:49;102293.72;;;15.40;100.00
59170;BME280;52474;52.236;5.114;2023-05-23T07:39:16;102290.75;;;15.34;100.00
59170;BME280;52474;52.236;5.114;2023-05-23T07:41:47;102307.59;;;14.68;100.00
59170;BME280;52474;52.236;5.114;2023-05-23T07:44:13;102300.31;;;14.48;100.00
59170;BME280;52474;52.236;5.114;2023-05-23T07:46:39;102312.78;;;14.81;100.00
59170;BME280;52474;52.236;5.114;2023-05-23T07:49:05;102308.50;;;15.23;100.00
59170;BME280;52474;52.236;5.114;2023-05-23T07:51:32;102303.25;;;15.22;100.00
59170;BME280;52474;52.236;5.114;2023-05-23T07:53:58;102297.94;;;16.38;100.00
59170;BME280;52474;52.236;5.114;2023-05-23T07:56:24;102310.03;;;16.12;100.00
59170;BME280;52474;52.236;5.114;2023-05-23T07:58:51;102302.88;;;17.14;100.00
59170;BME280;52474;52.236;5.114;2023-05-23T08:01:17;102287.41;;;18.33;100.00
59170;BME280;52474;52.236;5.114;2023-05-23T08:04:02;102303.53;;;19.87;100.00
59170;BME280;52474;52.236;5.114;2023-05-23T08:06:40;102310.13;;;16.92;100.00
59170;BME280;52474;52.236;5.114;2023-05-23T08:09:08;102285.84;;;15.07;100.00
59170;BME280;52474;52.236;5.114;2023-05-23T08:11:40;102314.06;;;20.33;100.00
59170;BME280;52474;52.236;5.114;2023-05-23T08:14:06;102316.38;;;24.00;100.00
59170;BME280;52474;52.236;5.114;2023-05-23T08:16:37;102311.88;;;20.28;100.00
59170;BME280;52474;52.236;5.114;2023-05-23T08:19:08;102319.34;;;22.42;100.00
59170;BME280;52474;52.236;5.114;2023-05-23T08:21:35;102307.38;;;25.89;100.00
59170;BME280;52474;52.236;5.114;2023-05-23T08:24:01;102324.94;;;22.33;100.00
59170;BME280;52474;52.236;5.114;2023-05-23T08:26:27;102316.44;;;18.84;100.00
59170;BME280;52474;52.236;5.114;2023-05-23T08:29:00;102329.56;;;17.84;100.00
59170;BME280;52474;52.236;5.114;2023-05-23T08:31:31;102324.59;;;17.69;100.00
59170;BME280;52474;52.236;5.114;2023-05-23T08:33:58;102328.63;;;20.48;100.00
59170;BME280;52474;52.236;5.114;2023-05-23T08:36:24;102340.78;;;18.73;100.00
59170;BME280;52474;52.236;5.114;2023-05-23T08:38:50;102333.25;;;20.04;100.00
59170;BME280;52474;52.236;5.114;2023-05-23T08:41:37;102328.53;;;20.32;100.00
59170;BME280;52474;52.236;5.114;2023-05-23T08:44:08;102313.09;;;19.00;100.00
59170;BME280;52474;52.236;5.114;2023-05-23T08:46:43;102328.81;;;18.01;100.00
59170;BME280;52474;52.236;5.114;2023-05-23T08:49:12;102339.00;;;16.89;100.00
59170;BME280;52474;52.236;5.114;2023-05-23T08:51:41;102345.81;;;16.20;100.00
59170;BME280;52474;52.236;5.114;2023-05-23T08:54:12;102331.81;;;16.28;100.00
59170;BME280;52474;52.236;5.114;2023-05-23T08:56:39;102343.09;;;18.96;100.00
59170;BME280;52474;52.236;5.114;2023-05-23T08:59:08;102340.59;;;23.24;100.00
59170;BME280;52474;52.236;5.114;2023-05-23T09:01:36;102339.13;;;21.94;100.00
59170;BME280;52474;52.236;5.114;2023-05-23T09:04:05;102366.25;;;22.33;100.00
59170;BME280;52474;52.236;5.114;2023-05-23T09:07:01;102360.78;;;23.60;100.00
59170;BME280;52474;52.236;5.114;2023-05-23T09:09:28;102349.75;;;21.04;100.00
59170;BME280;52474;52.236;5.114;2023-05-23T09:11:55;102364.03;;;22.45;100.00
59170;BME280;52474;52.236;5.114;2023-05-23T09:14:25;102357.75;;;19.47;100.00
59170;BME280;52474;52.236;5.114;2023-05-23T09:17:00;102344.25;;;24.00;100.00
59170;BME280;52474;52.236;5.114;2023-05-23T09:19:27;102371.06;;;23.41;100.00
59170;BME280;52474;52.236;5.114;2023-05-23T09:22:01;102370.56;;;19.53;100.00
59170;BME280;52474;52.236;5.114;2023-05-23T09:24:36;102366.84;;;20.86;100.00
59170;BME280;52474;52.236;5.114;2023-05-23T09:27:05;102367.50;;;20.02;100.00
59170;BME280;52474;52.236;5.114;2023-05-23T09:29:32;102370.25;;;18.36;100.00
59170;BME280;52474;52.236;5.114;2023-05-23T09:32:11;102366.75;;;17.38;100.00
59170;BME280;52474;52.236;5.114;2023-05-23T09:34:58;102387.03;;;16.90;100.00
59170;BME280;52474;52.236;5.114;2023-05-23T09:37:34;102386.72;;;16.32;100.00
59170;BME280;52474;52.236;5.114;2023-05-23T09:40:09;102396.94;;;17.00;100.00
59170;BME280;52474;52.236;5.114;2023-05-23T09:42:41;102390.88;;;20.01;100.00
59170;BME280;52474;52.236;5.114;2023-05-23T09:45:08;102376.59;;;20.53;100.00
59170;BME280;52474;52.236;5.114;2023-05-23T09:47:34;102382.06;;;19.45;100.00
59170;BME280;52474;52.236;5.114;2023-05-23T09:50:00;102377.00;;;19.60;100.00
59170;BME280;52474;52.236;5.114;2023-05-23T09:52:26;102386.91;;;19.14;100.00
59170;BME280;52474;52.236;5.114;2023-05-23T09:54:53;102376.78;;;18.14;100.00
59170;BME280;52474;52.236;5.114;2023-05-23T09:57:21;102349.16;;;17.65;100.00
59170;BME280;52474;52.236;5.114;2023-05-23T09:59:52;102368.78;;;17.85;100.00
59170;BME280;52474;52.236;5.114;2023-05-23T10:05:29;102399.34;;;18.11;100.00
59170;BME280;52474;52.236;5.114;2023-05-23T10:07:58;102376.94;;;18.12;100.00
59170;BME280;52474;52.236;5.114;2023-05-23T10:10:25;102398.91;;;20.45;100.00
59170;BME280;52474;52.236;5.114;2023-05-23T10:12:54;102393.47;;;19.57;100.00
59170;BME280;52474;52.236;5.114;2023-05-23T10:15:21;102406.88;;;19.12;100.00
59170;BME280;52474;52.236;5.114;2023-05-23T10:20:28;102403.63;;;16.84;100.00
59170;BME280;52474;52.236;5.114;2023-05-23T10:22:59;102403.38;;;16.03;100.00
59170;BME280;52474;52.236;5.114;2023-05-23T10:25:25;102412.25;;;15.60;100.00
59170;BME280;52474;52.236;5.114;2023-05-23T10:27:54;102415.94;;;15.92;100.00
59170;BME280;52474;52.236;5.114;2023-05-23T10:30:25;102411.75;;;15.78;100.00
59170;BME280;52474;52.236;5.114;2023-05-23T10:32:51;102397.00;;;15.51;100.00
59170;BME280;52474;52.236;5.114;2023-05-23T10:43:19;102415.47;;;17.92;100.00
59170;BME280;52474;52.236;5.114;2023-05-23T10:45:47;102422.59;;;17.43;100.00
59170;BME280;52474;52.236;5.114;2023-05-23T10:51:07;102412.22;;;17.88;100.00
59170;BME280;52474;52.236;5.114;2023-05-23T10:53:35;102410.97;;;18.78;100.00
59170;BME280;52474;52.236;5.114;2023-05-23T10:56:06;102416.00;;;24.34;100.00
59170;BME280;52474;52.236;5.114;2023-05-23T10:58:37;102415.59;;;20.05;100.00
59170;BME280;52474;52.236;5.114;2023-05-23T11:01:08;102421.22;;;18.26;100.00
59170;BME280;52474;52.236;5.114;2023-05-23T11:03:54;102415.53;;;18.58;100.00
59170;BME280;52474;52.236;5.114;2023-05-23T11:06:40;102413.66;;;20.15;100.00
59170;BME280;52474;52.236;5.114;2023-05-23T11:09:17;102404.69;;;20.76;100.00
59170;BME280;52474;52.236;5.114;2023-05-23T11:19:36;102418.81;;;19.90;100.00
59170;BME280;52474;52.236;5.114;2023-05-23T11:22:03;102418.09;;;23.32;100.00
59170;BME280;52474;52.236;5.114;2023-05-23T11:24:54;102415.53;;;20.93;100.00
59170;BME280;52474;52.236;5.114;2023-05-23T11:27:27;102421.91;;;19.78;100.00
59170;BME280;52474;52.236;5.114;2023-05-23T11:30:00;102427.31;;;19.22;100.00
59170;BME280;52474;52.236;5.114;2023-05-23T11:32:27;102422.69;;;20.32;100.00
59170;BME280;52474;52.236;5.114;2023-05-23T11:34:58;102430.44;;;21.13;100.00
59170;BME280;52474;52.236;5.114;2023-05-23T11:37:24;102415.16;;;22.38;100.00
59170;BME280;52474;52.236;5.114;2023-05-23T11:39:50;102413.78;;;22.59;100.00
59170;BME280;52474;52.236;5.114;2023-05-23T11:42:16;102424.72;;;21.59;100.00
59170;BME280;52474;52.236;5.114;2023-05-23T11:44:41;102429.97;;;18.95;100.00
59170;BME280;52474;52.236;5.114;2023-05-23T11:47:07;102431.19;;;19.38;100.00
59170;BME280;52474;52.236;5.114;2023-05-23T11:49:35;102424.06;;;18.91;100.00
59170;BME280;52474;52.236;5.114;2023-05-23T11:52:05;102420.72;;;21.29;100.00
59170;BME280;52474;52.236;5.114;2023-05-23T11:54:34;102408.50;;;21.51;100.00
59170;BME280;52474;52.236;5.114;2023-05-23T11:57:01;102420.38;;;21.66;100.00
59170;BME280;52474;52.236;5.114;2023-05-23T11:59:28;102423.19;;;19.73;100.00
59170;BME280;52474;52.236;5.114;2023-05-23T12:01:54;102410.06;;;21.19;100.00
59170;BME280;52474;52.236;5.114;2023-05-23T12:04:20;102428.09;;;20.84;100.00
59170;BME280;52474;52.236;5.114;2023-05-23T12:06:47;102428.13;;;19.33;100.00
59170;BME280;52474;52.236;5.114;2023-05-23T12:09:21;102432.63;;;18.48;100.00
59170;BME280;52474;52.236;5.114;2023-05-23T12:11:58;102435.78;;;18.90;100.00
59170;BME280;52474;52.236;5.114;2023-05-23T12:14:27;102428.03;;;19.88;100.00
59170;BME280;52474;52.236;5.114;2023-05-23T12:16:53;102442.84;;;20.28;100.00
59170;BME280;52474;52.236;5.114;2023-05-23T12:19:19;102432.13;;;19.46;100.00
59170;BME280;52474;52.236;5.114;2023-05-23T12:21:47;102437.91;;;18.00;100.00
59170;BME280;52474;52.236;5.114;2023-05-23T12:24:14;102438.09;;;19.40;100.00
59170;BME280;52474;52.236;5.114;2023-05-23T12:26:56;102428.09;;;21.18;100.00
59170;BME280;52474;52.236;5.114;2023-05-23T12:29:33;102436.41;;;20.65;100.00
59170;BME280;52474;52.236;5.114;2023-05-23T12:32:01;102434.84;;;20.18;100.00
59170;BME280;52474;52.236;5.114;2023-05-23T12:34:28;102445.13;;;20.58;100.00
59170;BME280;52474;52.236;5.114;2023-05-23T12:36:55;102432.97;;;19.19;100.00
59170;BME280;52474;52.236;5.114;2023-05-23T12:39:28;102437.59;;;18.13;100.00
59170;BME280;52474;52.236;5.114;2023-05-23T12:42:06;102430.00;;;18.75;100.00
59170;BME280;52474;52.236;5.114;2023-05-23T12:44:33;102441.09;;;18.43;100.00
59170;BME280;52474;52.236;5.114;2023-05-23T12:46:59;102437.78;;;18.88;100.00
59170;BME280;52474;52.236;5.114;2023-05-23T12:49:25;102451.88;;;18.90;100.00
59170;BME280;52474;52.236;5.114;2023-05-23T12:51:51;102426.41;;;20.13;100.00
59170;BME280;52474;52.236;5.114;2023-05-23T12:54:17;102438.88;;;19.33;100.00
59170;BME280;52474;52.236;5.114;2023-05-23T12:56:43;102445.34;;;19.02;100.00
59170;BME280;52474;52.236;5.114;2023-05-23T12:59:09;102437.13;;;18.66;100.00
59170;BME280;52474;52.236;5.114;2023-05-23T13:01:38;102447.69;;;19.88;100.00
59170;BME280;52474;52.236;5.114;2023-05-23T13:04:04;102439.69;;;20.76;100.00
59170;BME280;52474;52.236;5.114;2023-05-23T13:06:29;102442.28;;;20.94;100.00
59170;BME280;52474;52.236;5.114;2023-05-23T13:08:56;102447.44;;;20.79;100.00
59170;BME280;52474;52.236;5.114;2023-05-23T13:11:22;102428.56;;;21.14;100.00
59170;BME280;52474;52.236;5.114;2023-05-23T13:13:50;102438.00;;;20.75;100.00
59170;BME280;52474;52.236;5.114;2023-05-23T13:16:16;102455.09;;;20.66;100.00